Time;durP1;ratioP1;P1;durP2;ratioP2;P2;SDS_P1;SDS_P2;PMS_P1;PMS_P2;Temp;Humidity;BMP_temperature;BMP_pressure;BME280_temperature;BME280_humidity;BME280_pressure;Samples;Min_cycle;Max_cycle;Signal;HPM_P1;HPM_P2
2024/04/09 00:13:47;;;;;;;;;;;;;;;19.40;48.57;98463.06;11457617;20;1897;-71
2024/04/09 00:18:43;;;;;;;;;;;;;;;19.40;48.50;98454.28;11030510;26;942;-71
2024/04/09 00:23:39;;;;;;;;;;;;;;;19.40;48.43;98464.88;11030316;26;900;-71
2024/04/09 00:28:36;;;;;;;;;;;;;;;19.39;48.54;98476.41;11029534;26;1845;-71
2024/04/09 00:33:32;;;;;;;;;;;;;;;19.39;48.59;98464.03;11030043;26;1013;-71
2024/04/09 00:38:28;;;;;;;;;;;;;;;19.38;48.44;98457.03;11029263;26;1382;-71
2024/04/09 00:43:23;;;;;;;;;;;;;;;19.37;48.13;98460.63;11029074;26;826;-71
2024/04/09 00:48:19;;;;;;;;;;;;;;;19.36;48.25;98435.19;11028958;26;1852;-71
2024/04/09 00:53:16;;;;;;;;;;;;;;;19.36;47.98;98414.03;11029496;26;1141;-71
2024/04/09 00:58:12;;;;;;;;;;;;;;;19.36;48.05;98431.66;11028785;26;882;-71
2024/04/09 01:03:08;;;;;;;;;;;;;;;19.34;47.64;98458.22;11028533;26;1161;-71
2024/04/09 01:08:04;;;;;;;;;;;;;;;19.34;47.72;98455.56;11028220;26;1857;-71
2024/04/09 01:13:00;;;;;;;;;;;;;;;19.34;47.84;98442.38;11028421;26;1385;-71
2024/04/09 01:17:56;;;;;;;;;;;;;;;19.33;48.12;98379.88;11028138;26;918;-71
2024/04/09 01:22:52;;;;;;;;;;;;;;;19.33;48.00;98384.34;11028611;26;842;-71
2024/04/09 01:27:47;;;;;;;;;;;;;;;19.33;48.34;98360.56;11027724;26;1829;-71
2024/04/09 01:32:44;;;;;;;;;;;;;;;19.32;48.28;98362.38;11028264;26;1030;-71
2024/04/09 01:37:41;;;;;;;;;;;;;;;19.32;48.01;98357.06;11027540;26;1599;-71
2024/04/09 01:42:36;;;;;;;;;;;;;;;19.31;48.21;98365.97;11027381;26;819;-71
2024/04/09 01:47:33;;;;;;;;;;;;;;;19.32;47.96;98415.19;11027132;26;1829;-71
2024/04/09 01:52:29;;;;;;;;;;;;;;;19.31;47.87;98426.75;11027817;26;915;-71
2024/04/09 01:57:25;;;;;;;;;;;;;;;19.30;48.10;98437.41;11027100;26;1030;-71
2024/04/09 02:02:21;;;;;;;;;;;;;;;19.31;47.92;98465.50;11027564;26;822;-71
2024/04/09 02:07:17;;;;;;;;;;;;;;;19.30;48.00;98495.53;11026597;26;1825;-71
2024/04/09 02:12:13;;;;;;;;;;;;;;;19.31;47.82;98473.41;11026263;26;1111;-71
2024/04/09 02:17:11;;;;;;;;;;;;;;;19.29;48.15;98494.69;11025519;26;812;-71
2024/04/09 02:22:07;;;;;;;;;;;;;;;19.29;47.90;98513.19;11026177;26;863;-71
2024/04/09 02:27:03;;;;;;;;;;;;;;;19.28;47.79;98506.19;11026035;26;1841;-71
2024/04/09 02:32:00;;;;;;;;;;;;;;;19.29;47.81;98513.19;11025932;26;994;-71
2024/04/09 02:36:56;;;;;;;;;;;;;;;19.28;47.74;98532.59;11026281;26;870;-71
2024/04/09 02:41:52;;;;;;;;;;;;;;;19.28;47.82;98540.53;11026143;26;874;-71
2024/04/09 02:46:49;;;;;;;;;;;;;;;19.27;47.88;98555.53;11025754;26;1849;-71
2024/04/09 02:51:45;;;;;;;;;;;;;;;19.26;47.79;98569.72;11025115;26;831;-71
2024/04/09 02:56:41;;;;;;;;;;;;;;;19.26;48.08;98558.31;11025617;26;849;-71
2024/04/09 03:01:37;;;;;;;;;;;;;;;19.26;48.00;98553.03;11025445;26;897;-71
2024/04/09 03:06:33;;;;;;;;;;;;;;;19.26;47.95;98553.03;11025191;26;1864;-71
2024/04/09 03:11:29;;;;;;;;;;;;;;;19.26;47.95;98563.59;11024180;26;984;-71
2024/04/09 03:16:25;;;;;;;;;;;;;;;19.25;48.05;98557.44;11025056;26;765;-71
2024/04/09 03:21:21;;;;;;;;;;;;;;;19.24;48.08;98574.25;11025375;26;885;-71
2024/04/09 03:26:17;;;;;;;;;;;;;;;19.25;48.03;98593.59;11024461;26;1864;-71
2024/04/09 03:31:13;;;;;;;;;;;;;;;19.23;48.13;98611.31;11027758;26;819;-71
2024/04/09 03:36:09;;;;;;;;;;;;;;;19.23;48.31;98646.53;11032304;26;889;-71
2024/04/09 03:41:04;;;;;;;;;;;;;;;19.22;48.05;98673.88;11031489;26;885;-71
2024/04/09 03:46:00;;;;;;;;;;;;;;;19.23;48.15;98695.84;11031466;26;1872;-71
2024/04/09 03:50:56;;;;;;;;;;;;;;;19.22;48.43;98678.31;11031835;26;930;-71
2024/04/09 03:55:52;;;;;;;;;;;;;;;19.22;48.32;98691.53;11031102;26;943;-71
2024/04/09 04:00:48;;;;;;;;;;;;;;;19.21;48.34;98639.66;11030864;26;927;-71
2024/04/09 04:05:44;;;;;;;;;;;;;;;19.21;48.30;98624.66;11031379;26;1833;-71
2024/04/09 04:10:40;;;;;;;;;;;;;;;19.21;48.08;98666.09;11030574;26;878;-71
2024/04/09 04:15:35;;;;;;;;;;;;;;;19.20;48.24;98677.56;11029849;26;1068;-71
2024/04/09 04:20:31;;;;;;;;;;;;;;;19.21;48.08;98690.69;11029726;26;1062;-71
2024/04/09 04:25:27;;;;;;;;;;;;;;;19.23;48.44;98674.72;11029560;26;993;-71
2024/04/09 04:30:23;;;;;;;;;;;;;;;19.22;48.25;98657.19;11029468;26;822;-71
2024/04/09 04:35:19;;;;;;;;;;;;;;;19.23;48.19;98695.84;11030045;26;815;-71
2024/04/09 04:40:15;;;;;;;;;;;;;;;19.24;48.17;98710.78;11029414;26;895;-71
2024/04/09 04:45:11;;;;;;;;;;;;;;;19.25;48.12;98709.81;11029437;26;1022;-71
2024/04/09 04:50:06;;;;;;;;;;;;;;;19.25;48.07;98715.09;11028825;26;1833;-71
2024/04/09 04:55:02;;;;;;;;;;;;;;;19.26;48.26;98717.66;11028784;26;859;-71
2024/04/09 04:59:58;;;;;;;;;;;;;;;19.27;47.95;98708.78;11029350;26;875;-71
2024/04/09 05:04:54;;;;;;;;;;;;;;;19.30;48.46;98705.09;11028456;26;875;-71
2024/04/09 05:09:50;;;;;;;;;;;;;;;19.30;48.19;98691.88;11028284;26;1847;-71
2024/04/09 05:14:47;;;;;;;;;;;;;;;19.32;48.16;98689.97;11028061;26;1428;-71
2024/04/09 05:19:43;;;;;;;;;;;;;;;19.33;48.04;98712.81;11028125;26;891;-71
2024/04/09 05:24:43;;;;;;;;;;;;;;;19.34;48.06;98721.59;11027976;26;883;-71
2024/04/09 05:29:39;;;;;;;;;;;;;;;19.34;48.20;98740.94;11028353;26;1837;-71
2024/04/09 05:34:35;;;;;;;;;;;;;;;19.36;48.20;98799.81;11028306;26;960;-71
2024/04/09 05:39:31;;;;;;;;;;;;;;;19.37;48.16;98809.44;11027516;26;951;-71
2024/04/09 05:44:26;;;;;;;;;;;;;;;19.38;48.17;98811.13;11028117;26;955;-71
2024/04/09 05:49:23;;;;;;;;;;;;;;;19.38;48.18;98742.41;11027102;26;1821;-71
2024/04/09 05:54:19;;;;;;;;;;;;;;;19.40;48.11;98729.94;11025893;26;889;-72
2024/04/09 05:59:14;;;;;;;;;;;;;;;19.39;48.09;98736.19;11027664;26;846;-71
2024/04/09 06:04:10;;;;;;;;;;;;;;;19.40;48.24;98724.66;11026909;26;986;-71
2024/04/09 06:09:08;;;;;;;;;;;;;;;19.42;48.12;98753.66;11027336;26;1864;-71
2024/04/09 06:14:04;;;;;;;;;;;;;;;19.44;48.19;98812.50;11026933;26;1048;-71
2024/04/09 06:19:00;;;;;;;;;;;;;;;19.43;48.33;98843.38;11027766;26;813;-72
2024/04/09 06:23:56;;;;;;;;;;;;;;;19.45;48.17;98870.56;11026843;26;869;-71
2024/04/09 06:28:52;;;;;;;;;;;;;;;19.46;48.36;98881.97;11026667;26;1837;-71
2024/04/09 06:33:49;;;;;;;;;;;;;;;19.46;48.23;98845.81;11027399;26;977;-71
2024/04/09 06:38:45;;;;;;;;;;;;;;;19.47;48.23;98836.97;11026467;26;859;-71
2024/04/09 06:43:41;;;;;;;;;;;;;;;19.48;48.29;98854.50;11026896;26;789;-71
2024/04/09 06:48:37;;;;;;;;;;;;;;;19.49;48.41;98819.22;11025932;26;1833;-71
2024/04/09 06:53:33;;;;;;;;;;;;;;;19.51;48.42;98810.34;11022354;26;1450;-71
2024/04/09 06:58:29;;;;;;;;;;;;;;;19.52;48.28;98822.59;11024425;26;974;-71
2024/04/09 07:03:25;;;;;;;;;;;;;;;19.53;48.29;98832.22;11025000;26;900;-71
2024/04/09 07:08:21;;;;;;;;;;;;;;;19.54;48.16;98847.97;11031636;26;1844;-70
2024/04/09 07:13:16;;;;;;;;;;;;;;;19.54;48.35;98847.13;11031334;26;1067;-71
2024/04/09 07:18:12;;;;;;;;;;;;;;;19.54;48.21;98845.31;11032081;26;835;-70
2024/04/09 07:23:08;;;;;;;;;;;;;;;19.54;48.27;98857.69;11031682;26;814;-71
2024/04/09 07:28:04;;;;;;;;;;;;;;;19.54;48.07;98884.13;11031789;26;1858;-71
2024/04/09 07:33:00;;;;;;;;;;;;;;;19.54;48.41;98890.25;11031155;26;953;-71
2024/04/09 07:37:56;;;;;;;;;;;;;;;19.54;48.21;98894.72;11031661;26;885;-71
2024/04/09 07:42:52;;;;;;;;;;;;;;;19.53;48.55;98891.22;11030780;26;874;-71
2024/04/09 07:47:49;;;;;;;;;;;;;;;19.54;48.42;98915.84;11031321;26;1833;-71
2024/04/09 07:52:45;;;;;;;;;;;;;;;19.55;48.40;98959.88;11030368;26;934;-70
2024/04/09 07:57:42;;;;;;;;;;;;;;;19.54;48.36;98979.28;11030857;26;1048;-72
2024/04/09 08:02:38;;;;;;;;;;;;;;;19.55;48.47;98991.59;11030321;26;863;-70
2024/04/09 08:07:38;;;;;;;;;;;;;;;19.55;48.61;98975.72;11030560;26;1841;-71
2024/04/09 08:12:33;;;;;;;;;;;;;;;19.55;48.25;98952.78;11029828;26;1048;-70
2024/04/09 08:17:30;;;;;;;;;;;;;;;19.57;48.28;98923.59;11029365;26;889;-71
2024/04/09 08:22:26;;;;;;;;;;;;;;;19.58;48.50;98935.88;11030057;26;874;-71
2024/04/09 08:27:22;;;;;;;;;;;;;;;19.59;48.52;98950.78;11029779;26;1848;-71
2024/04/09 08:32:19;;;;;;;;;;;;;;;19.58;48.58;98983.47;11029598;26;874;-71
2024/04/09 08:37:15;;;;;;;;;;;;;;;19.59;48.57;99014.22;11029409;26;887;-70
2024/04/09 08:42:11;;;;;;;;;;;;;;;19.59;48.49;99017.72;11029492;26;822;-71
2024/04/09 08:47:08;;;;;;;;;;;;;;;19.58;48.36;99045.09;11029298;26;1833;-71
2024/04/09 08:52:04;;;;;;;;;;;;;;;19.59;48.28;99017.72;11028796;26;1336;-71
2024/04/09 08:56:59;;;;;;;;;;;;;;;19.59;48.30;98999.19;11028326;26;840;-71
2024/04/09 09:01:56;;;;;;;;;;;;;;;19.58;48.42;99021.31;11028283;26;981;-71
2024/04/09 09:06:51;;;;;;;;;;;;;;;19.59;48.44;99020.34;11027965;26;1833;-70
2024/04/09 09:11:47;;;;;;;;;;;;;;;19.60;48.29;99045.03;11027426;26;1837;-71
2024/04/09 09:16:43;;;;;;;;;;;;;;;19.59;48.16;99062.66;11027881;26;1069;-71
2024/04/09 09:21:39;;;;;;;;;;;;;;;19.58;48.16;99095.31;11027946;26;885;-70
2024/04/09 09:26:35;;;;;;;;;;;;;;;19.58;48.13;99076.81;11026543;26;1832;-67
2024/04/09 09:31:31;;;;;;;;;;;;;;;19.58;48.07;99131.50;11026920;26;1090;-71
2024/04/09 09:36:27;;;;;;;;;;;;;;;19.58;48.10;99118.28;11027160;26;839;-71
2024/04/09 09:41:23;;;;;;;;;;;;;;;19.58;48.04;99166.69;11027165;26;986;-70
2024/04/09 09:46:19;;;;;;;;;;;;;;;19.58;48.07;99176.44;11026875;26;1833;-71
2024/04/09 09:51:15;;;;;;;;;;;;;;;19.57;48.23;99194.09;11027044;26;898;-70
2024/04/09 09:56:11;;;;;;;;;;;;;;;19.57;47.89;99207.31;11026608;26;820;-71
2024/04/09 10:01:07;;;;;;;;;;;;;;;19.57;48.16;99191.44;11027143;26;1022;-71
2024/04/09 10:06:03;;;;;;;;;;;;;;;19.57;48.10;99186.16;11027449;26;1829;-71
2024/04/09 10:10:59;;;;;;;;;;;;;;;19.59;48.01;99183.41;11026604;26;1068;-70
2024/04/09 10:15:55;;;;;;;;;;;;;;;19.59;47.89;99193.97;11027718;26;1083;-71
2024/04/09 10:20:51;;;;;;;;;;;;;;;19.58;48.06;99195.78;11024840;26;1277;-71
2024/04/09 10:25:47;;;;;;;;;;;;;;;19.60;47.86;99201.00;11025779;26;1864;-70
2024/04/09 10:30:43;;;;;;;;;;;;;;;19.60;47.91;99201.84;11025708;26;1037;-71
2024/04/09 10:35:39;;;;;;;;;;;;;;;19.63;47.87;99171.72;11025385;26;1430;-71
2024/04/09 10:40:35;;;;;;;;;;;;;;;19.62;48.08;99170.00;11024847;26;822;-73
2024/04/09 10:45:30;;;;;;;;;;;;;;;19.61;48.04;99185.03;11025110;26;868;-71
2024/04/09 10:50:26;;;;;;;;;;;;;;;19.62;48.31;99215.81;11025008;26;1836;-72
2024/04/09 10:55:22;;;;;;;;;;;;;;;19.64;48.14;99234.22;11025212;26;833;-72
2024/04/09 11:00:18;;;;;;;;;;;;;;;19.64;48.17;99239.50;11024494;26;903;-71
2024/04/09 11:05:14;;;;;;;;;;;;;;;19.65;48.07;99243.88;11024814;26;850;-72
2024/04/09 11:10:10;;;;;;;;;;;;;;;19.65;48.30;99257.09;11024042;26;1833;-72
2024/04/09 11:15:10;;;;;;;;;;;;;;;19.64;48.12;99274.72;11024661;26;1065;-72
2024/04/09 11:20:14;;;;;;;;;;;;;;;19.64;48.32;99272.09;11024467;26;889;-72
2024/04/09 11:25:12;;;;;;;;;;;;;;;19.66;48.13;99259.66;11024623;26;905;-71
2024/04/09 11:30:08;;;;;;;;;;;;;;;19.67;48.23;99261.34;11024042;26;1833;-72
2024/04/09 11:35:04;;;;;;;;;;;;;;;19.68;48.10;99249.84;11024207;26;848;-72
2024/04/09 11:40:00;;;;;;;;;;;;;;;19.70;48.10;99220.66;11023568;26;826;-72
2024/04/09 11:44:56;;;;;;;;;;;;;;;19.72;47.98;99223.22;11024175;26;881;-72
2024/04/09 11:49:52;;;;;;;;;;;;;;;19.73;47.93;99224.91;11023358;26;1855;-72
2024/04/09 11:54:48;;;;;;;;;;;;;;;19.74;47.95;99235.41;11030980;26;942;-72
2024/04/09 11:59:44;;;;;;;;;;;;;;;19.75;47.87;99230.97;11030739;26;933;-72
2024/04/09 12:04:40;;;;;;;;;;;;;;;19.75;47.85;99234.47;11030713;26;909;-71
2024/04/09 12:09:36;;;;;;;;;;;;;;;19.77;47.95;99247.59;11030381;26;1833;-72
2024/04/09 12:14:32;;;;;;;;;;;;;;;19.78;47.99;99259.88;11029978;26;1092;-72
2024/04/09 12:19:28;;;;;;;;;;;;;;;19.78;47.83;99257.22;11029957;26;903;-72
2024/04/09 12:24:24;;;;;;;;;;;;;;;19.78;47.77;99257.22;11030516;26;909;-73
2024/04/09 12:29:20;;;;;;;;;;;;;;;19.80;47.90;99248.25;11029622;26;1844;-73
2024/04/09 12:34:16;;;;;;;;;;;;;;;19.78;47.65;99250.16;11026638;26;1291;-72
2024/04/09 12:39:11;;;;;;;;;;;;;;;19.80;47.93;99261.47;11028927;26;890;-71
2024/04/09 12:44:07;;;;;;;;;;;;;;;19.82;47.62;99274.63;11028485;26;880;-72
2024/04/09 12:49:03;;;;;;;;;;;;;;;19.85;47.62;99272.63;11029185;26;1856;-72
2024/04/09 12:53:59;;;;;;;;;;;;;;;19.82;47.50;99285.19;11029049;26;863;-72
2024/04/09 12:58:55;;;;;;;;;;;;;;;19.80;47.55;99295.84;11028710;26;914;-72
2024/04/09 13:03:51;;;;;;;;;;;;;;;19.80;47.66;99293.22;11028624;26;978;-72
2024/04/09 13:08:47;;;;;;;;;;;;;;;19.79;47.53;99296.81;11028125;26;1833;-71
2024/04/09 13:13:42;;;;;;;;;;;;;;;19.79;47.45;99273.00;11028583;26;1119;-71
2024/04/09 13:18:40;;;;;;;;;;;;;;;19.81;47.29;99281.72;11028538;26;859;-72
2024/04/09 13:23:36;;;;;;;;;;;;;;;19.83;47.54;99286.91;11029039;26;909;-72
2024/04/09 13:28:32;;;;;;;;;;;;;;;19.85;47.25;99269.16;11028159;26;1849;-72
2024/04/09 13:33:28;;;;;;;;;;;;;;;19.84;47.34;99283.31;11028047;26;866;-72
2024/04/09 13:38:24;;;;;;;;;;;;;;;19.85;47.07;99291.16;11027963;26;914;-72
2024/04/09 13:43:20;;;;;;;;;;;;;;;19.87;47.04;99291.06;11027677;26;821;-72
2024/04/09 13:48:16;;;;;;;;;;;;;;;19.84;47.14;99302.69;11027582;26;1833;-72
2024/04/09 13:53:12;;;;;;;;;;;;;;;19.79;47.11;99317.13;11028158;26;978;-72
2024/04/09 13:58:08;;;;;;;;;;;;;;;19.77;46.85;99319.84;11027350;26;1195;-72
2024/04/09 14:03:04;;;;;;;;;;;;;;;19.77;46.78;99313.72;11027840;26;1009;-72
2024/04/09 14:08:01;;;;;;;;;;;;;;;19.74;46.74;99304.16;11023563;26;1848;-72
2024/04/09 14:12:57;;;;;;;;;;;;;;;19.73;46.86;99302.47;11023706;26;1230;-72
2024/04/09 14:17:53;;;;;;;;;;;;;;;19.73;46.89;99326.28;11026092;26;905;-72
2024/04/09 14:22:49;;;;;;;;;;;;;;;19.72;46.64;99326.34;11025809;26;899;-72
2024/04/09 14:27:45;;;;;;;;;;;;;;;19.69;46.63;99336.16;11026302;26;1832;-73
2024/04/09 14:32:41;;;;;;;;;;;;;;;19.68;46.71;99325.69;11026290;26;980;-72
2024/04/09 14:37:37;;;;;;;;;;;;;;;19.66;46.98;99322.25;11025464;26;989;-75
2024/04/09 14:42:33;;;;;;;;;;;;;;;19.66;46.71;99324.88;11025258;26;953;-72
2024/04/09 14:47:28;;;;;;;;;;;;;;;19.65;46.58;99329.31;11025020;26;1849;-72
2024/04/09 14:52:24;;;;;;;;;;;;;;;19.66;46.69;99319.59;11024949;26;942;-72
2024/04/09 14:57:21;;;;;;;;;;;;;;;19.65;46.54;99347.00;11024815;26;936;-73
2024/04/09 15:02:17;;;;;;;;;;;;;;;19.64;46.65;99355.84;11024578;26;1001;-72
2024/04/09 15:07:13;;;;;;;;;;;;;;;19.64;46.41;99367.25;11024428;26;1829;-72
2024/04/09 15:12:09;;;;;;;;;;;;;;;19.64;46.26;99372.56;11024249;26;1095;-72
2024/04/09 15:17:06;;;;;;;;;;;;;;;19.64;46.37;99374.34;11025432;26;900;-73
2024/04/09 15:22:02;;;;;;;;;;;;;;;19.64;46.39;99391.06;11024549;26;840;-73
2024/04/09 15:26:58;;;;;;;;;;;;;;;19.63;46.37;99391.16;11028738;26;1837;-73
2024/04/09 15:31:57;;;;;;;;;;;;;;;19.62;46.47;99400.91;11032234;26;957;-73
2024/04/09 15:36:53;;;;;;;;;;;;;;;19.62;46.31;99410.59;11032085;26;875;-73
2024/04/09 15:41:48;;;;;;;;;;;;;;;19.61;46.56;99417.69;11031408;26;974;-73
2024/04/09 15:46:44;;;;;;;;;;;;;;;19.61;46.43;99424.75;11031744;26;1821;-72
2024/04/09 15:51:40;;;;;;;;;;;;;;;19.61;45.96;99435.34;11031624;26;1611;-72
2024/04/09 15:56:36;;;;;;;;;;;;;;;19.60;46.23;99438.94;11030851;26;974;-72
2024/04/09 16:01:32;;;;;;;;;;;;;;;19.59;46.19;99450.44;11031405;26;910;-72
2024/04/09 16:06:29;;;;;;;;;;;;;;;19.58;46.09;99441.66;11030605;26;1829;-72
2024/04/09 16:11:25;;;;;;;;;;;;;;;19.58;46.14;99454.88;11029964;26;994;-72
2024/04/09 16:16:21;;;;;;;;;;;;;;;19.58;46.24;99467.25;11031123;26;752;-72
2024/04/09 16:21:17;;;;;;;;;;;;;;;19.58;46.22;99469.88;11030701;26;911;-74
2024/04/09 16:26:13;;;;;;;;;;;;;;;19.56;46.11;99491.09;11029796;26;1864;-74
2024/04/09 16:31:09;;;;;;;;;;;;;;;19.56;46.15;99485.81;11029751;26;841;-72
2024/04/09 16:36:06;;;;;;;;;;;;;;;19.56;46.09;99469.09;11028982;26;972;-72
2024/04/09 16:41:02;;;;;;;;;;;;;;;19.55;46.18;99488.56;11029608;26;1007;-73
2024/04/09 16:45:58;;;;;;;;;;;;;;;19.55;46.06;99507.91;11029335;26;1837;-73
2024/04/09 16:50:54;;;;;;;;;;;;;;;19.55;46.03;99493.84;11030189;26;873;-73
2024/04/09 16:55:50;;;;;;;;;;;;;;;19.55;46.12;99504.44;11029838;26;993;-72
2024/04/09 17:00:46;;;;;;;;;;;;;;;19.54;46.24;99505.34;11030486;26;919;-74
2024/04/09 17:05:42;;;;;;;;;;;;;;;19.54;46.23;99513.28;11029604;26;1888;-74
2024/04/09 17:10:37;;;;;;;;;;;;;;;19.53;46.11;99522.16;11028843;26;900;-73
2024/04/09 17:15:33;;;;;;;;;;;;;;;19.52;45.97;99517.78;11029024;26;1317;-73
2024/04/09 17:20:29;;;;;;;;;;;;;;;19.52;45.97;99531.00;11029216;26;947;-74
2024/04/09 17:25:25;;;;;;;;;;;;;;;19.50;45.81;99533.75;11028424;26;815;-73
2024/04/09 17:30:21;;;;;;;;;;;;;;;19.51;45.84;99546.00;11028087;26;1829;-73
2024/04/09 17:35:17;;;;;;;;;;;;;;;19.51;45.92;99550.44;11028140;26;858;-74
2024/04/09 17:40:13;;;;;;;;;;;;;;;19.49;45.98;99556.69;11028538;26;1033;-74
2024/04/09 17:45:08;;;;;;;;;;;;;;;19.49;45.94;99569.91;11028495;26;873;-74
2024/04/09 17:50:05;;;;;;;;;;;;;;;19.48;46.00;99573.47;11026093;26;1851;-73
2024/04/09 17:55:01;;;;;;;;;;;;;;;19.48;45.83;99586.69;11027539;26;824;-74
2024/04/09 17:59:57;;;;;;;;;;;;;;;19.49;45.85;99606.03;11027409;26;961;-73
2024/04/09 18:04:53;;;;;;;;;;;;;;;19.47;46.04;99611.41;11027930;26;892;-74
2024/04/09 18:09:49;;;;;;;;;;;;;;;19.47;45.88;99613.22;11026951;26;1821;-74
2024/04/09 18:14:44;;;;;;;;;;;;;;;19.46;45.96;99612.34;11026196;26;1167;-74
2024/04/09 18:19:40;;;;;;;;;;;;;;;19.47;45.74;99626.44;11026195;26;951;-72
2024/04/09 18:24:36;;;;;;;;;;;;;;;19.46;45.89;99632.63;11025988;26;897;-74
2024/04/09 18:29:32;;;;;;;;;;;;;;;19.46;45.80;99637.91;11025757;26;1849;-74
2024/04/09 18:34:28;;;;;;;;;;;;;;;19.46;45.85;99656.44;11025717;26;946;-74
2024/04/09 18:39:24;;;;;;;;;;;;;;;19.44;45.77;99661.81;11026279;26;946;-74
2024/04/09 18:44:21;;;;;;;;;;;;;;;19.44;45.70;99677.66;11026062;26;823;-74
2024/04/09 18:49:17;;;;;;;;;;;;;;;19.44;45.57;99697.94;11025101;26;1844;-76
2024/04/09 18:54:14;;;;;;;;;;;;;;;19.44;45.70;99704.09;11025582;26;938;-74
2024/04/09 18:59:10;;;;;;;;;;;;;;;19.41;45.59;99714.84;11025026;26;921;-74
2024/04/09 19:04:08;;;;;;;;;;;;;;;19.43;45.54;99757.03;11031815;26;835;-74
2024/04/09 19:09:04;;;;;;;;;;;;;;;19.42;45.66;99763.25;11031573;26;1831;-74
2024/04/09 19:14:00;;;;;;;;;;;;;;;19.42;45.76;99790.53;11031319;26;1235;-74
2024/04/09 19:18:56;;;;;;;;;;;;;;;19.42;45.66;99784.41;11031397;26;815;-74
2024/04/09 19:23:52;;;;;;;;;;;;;;;19.41;45.68;99794.13;11031866;26;1033;-73
2024/04/09 19:28:48;;;;;;;;;;;;;;;19.40;45.72;99792.41;11031560;26;1833;-74
2024/04/09 19:33:44;;;;;;;;;;;;;;;19.42;45.75;99806.41;11031612;26;849;-73
2024/04/09 19:38:40;;;;;;;;;;;;;;;19.42;45.78;99816.97;11030786;26;857;-73
2024/04/09 19:43:36;;;;;;;;;;;;;;;19.42;45.84;99810.84;11030577;26;833;-73
2024/04/09 19:48:32;;;;;;;;;;;;;;;19.42;45.84;99821.41;11030468;26;1846;-73
2024/04/09 19:53:28;;;;;;;;;;;;;;;19.41;45.84;99820.56;11030993;26;887;-73
2024/04/09 19:58:24;;;;;;;;;;;;;;;19.41;45.84;99822.31;11030901;26;1129;-73
2024/04/09 20:03:20;;;;;;;;;;;;;;;19.40;45.88;99833.84;11030763;26;986;-73
2024/04/09 20:08:16;;;;;;;;;;;;;;;19.38;45.83;99849.78;11029798;26;1821;-74
2024/04/09 20:13:12;;;;;;;;;;;;;;;19.37;45.58;99856.00;11029261;26;1083;-75
2024/04/09 20:18:08;;;;;;;;;;;;;;;19.36;45.68;99861.34;11030351;26;874;-74
2024/04/09 20:23:04;;;;;;;;;;;;;;;19.34;45.61;99852.66;11030630;26;1052;-70
2024/04/09 20:28:00;;;;;;;;;;;;;;;19.34;45.70;99869.38;11030466;26;1837;-72
2024/04/09 20:32:56;;;;;;;;;;;;;;;19.33;45.59;99875.56;11031059;26;861;-72
2024/04/09 20:37:52;;;;;;;;;;;;;;;19.33;45.58;99882.63;11030897;26;1073;-72
2024/04/09 20:42:47;;;;;;;;;;;;;;;19.32;45.64;99876.50;11030130;26;827;-73
2024/04/09 20:47:43;;;;;;;;;;;;;;;19.32;45.65;99888.88;11029982;26;1848;-72
2024/04/09 20:52:39;;;;;;;;;;;;;;;19.31;45.52;99900.34;11030527;26;887;-73
2024/04/09 20:57:35;;;;;;;;;;;;;;;19.30;45.67;99902.13;11029714;26;1040;-72
2024/04/09 21:02:31;;;;;;;;;;;;;;;19.29;45.79;99903.09;11030269;26;818;-72
2024/04/09 21:07:27;;;;;;;;;;;;;;;19.27;45.88;99905.78;11029427;26;1825;-73
2024/04/09 21:12:23;;;;;;;;;;;;;;;19.26;45.65;99904.09;11029754;26;1422;-72
2024/04/09 21:17:19;;;;;;;;;;;;;;;19.24;45.50;99916.50;11028553;26;847;-73
2024/04/09 21:22:15;;;;;;;;;;;;;;;19.23;45.48;99916.56;11028834;26;859;-72
2024/04/09 21:27:11;;;;;;;;;;;;;;;19.21;45.49;99921.09;11028216;26;1856;-72
2024/04/09 21:32:07;;;;;;;;;;;;;;;19.20;45.21;99927.28;11028042;26;853;-72
2024/04/09 21:37:04;;;;;;;;;;;;;;;19.18;45.33;99942.38;11028091;26;844;-72
2024/04/09 21:42:00;;;;;;;;;;;;;;;19.15;45.33;99946.00;11028521;26;809;-72
2024/04/09 21:46:56;;;;;;;;;;;;;;;19.14;45.03;99943.44;11028266;26;1847;-72
2024/04/09 21:51:52;;;;;;;;;;;;;;;19.12;45.22;99948.75;11027525;26;878;-72
2024/04/09 21:56:48;;;;;;;;;;;;;;;19.11;45.07;99960.28;11027991;26;966;-72
2024/04/09 22:01:43;;;;;;;;;;;;;;;19.07;44.75;99977.19;11027937;26;922;-72
2024/04/09 22:06:39;;;;;;;;;;;;;;;19.06;45.10;99988.69;11027055;26;1854;-73
2024/04/09 22:11:36;;;;;;;;;;;;;;;19.04;45.18;99986.09;11027093;26;1735;-72
2024/04/09 22:16:31;;;;;;;;;;;;;;;19.02;45.16;99979.16;11028257;26;1001;-72
2024/04/09 22:21:27;;;;;;;;;;;;;;;19.01;45.50;99993.31;11027891;26;955;-72
2024/04/09 22:26:24;;;;;;;;;;;;;;;18.98;45.27;99991.66;11027126;26;1860;-72
2024/04/09 22:31:21;;;;;;;;;;;;;;;18.96;45.02;99987.38;11027596;26;914;-72
2024/04/09 22:36:18;;;;;;;;;;;;;;;18.94;45.43;99999.78;11025828;26;896;-72
2024/04/09 22:41:14;;;;;;;;;;;;;;;18.90;45.36;99993.78;11026652;26;864;-73
2024/04/09 22:46:10;;;;;;;;;;;;;;;18.89;45.37;100007.94;11027097;26;1860;-72
2024/04/09 22:51:06;;;;;;;;;;;;;;;18.87;45.45;100015.06;11026283;26;962;-72
2024/04/09 22:56:01;;;;;;;;;;;;;;;18.85;45.77;100040.69;11026175;26;893;-72
2024/04/09 23:00:57;;;;;;;;;;;;;;;18.83;45.52;100043.38;11026515;26;1042;-72
2024/04/09 23:05:53;;;;;;;;;;;;;;;18.83;46.00;100050.44;11025661;26;1839;-72
2024/04/09 23:10:49;;;;;;;;;;;;;;;18.81;45.75;100041.72;11025594;26;833;-72
2024/04/09 23:15:45;;;;;;;;;;;;;;;18.78;45.63;100047.13;11025208;26;1351;-72
2024/04/09 23:20:41;;;;;;;;;;;;;;;18.76;45.69;100052.50;11025843;26;1336;-72
2024/04/09 23:25:37;;;;;;;;;;;;;;;18.74;46.06;100056.94;11025692;26;954;-72
2024/04/09 23:30:33;;;;;;;;;;;;;;;18.73;45.79;100046.44;11024801;26;1837;-72
2024/04/09 23:35:29;;;;;;;;;;;;;;;18.72;45.83;100044.72;11024601;26;1645;-72
2024/04/09 23:40:25;;;;;;;;;;;;;;;18.70;45.75;100054.50;11025231;26;878;-72
2024/04/09 23:45:21;;;;;;;;;;;;;;;18.69;45.99;100055.44;11024387;26;856;-72
2024/04/09 23:50:17;;;;;;;;;;;;;;;18.68;45.69;100061.63;11031361;26;1821;-72
2024/04/09 23:55:13;;;;;;;;;;;;;;;18.67;46.15;100073.13;11031558;26;982;-72
